sensor_id;sensor_type;location;lat;lon;timestamp;P1;durP1;ratioP1;P2;durP2;ratioP2
13795;SDS011;40911;51.552;9.874;2023-04-24T00:02:17;2.17;;;1.60;;
13795;SDS011;40911;51.552;9.874;2023-04-24T00:04:38;1.70;;;1.60;;
13795;SDS011;40911;51.552;9.874;2023-04-24T00:07:00;1.80;;;1.70;;
13795;SDS011;40911;51.552;9.874;2023-04-24T00:09:22;1.88;;;1.77;;
13795;SDS011;40911;51.552;9.874;2023-04-24T00:11:46;1.80;;;1.70;;
13795;SDS011;40911;51.552;9.874;2023-04-24T00:14:08;1.70;;;1.60;;
13795;SDS011;40911;51.552;9.874;2023-04-24T00:18:51;2.55;;;1.80;;
13795;SDS011;40911;51.552;9.874;2023-04-24T00:21:13;3.22;;;1.92;;
13795;SDS011;40911;51.552;9.874;2023-04-24T00:23:35;1.85;;;1.70;;
13795;SDS011;40911;51.552;9.874;2023-04-24T00:28:19;1.85;;;1.75;;
13795;SDS011;40911;51.552;9.874;2023-04-24T00:30:41;1.70;;;1.60;;
13795;SDS011;40911;51.552;9.874;2023-04-24T00:33:02;1.70;;;1.60;;
13795;SDS011;40911;51.552;9.874;2023-04-24T00:37:46;2.88;;;1.63;;
13795;SDS011;40911;51.552;9.874;2023-04-24T00:42:29;2.20;;;2.00;;
13795;SDS011;40911;51.552;9.874;2023-04-24T00:44:53;1.60;;;1.50;;
13795;SDS011;40911;51.552;9.874;2023-04-24T00:47:15;6.35;;;3.22;;
13795;SDS011;40911;51.552;9.874;2023-04-24T00:49:37;3.22;;;1.73;;
13795;SDS011;40911;51.552;9.874;2023-04-24T00:51:58;1.83;;;1.60;;
13795;SDS011;40911;51.552;9.874;2023-04-24T00:54:21;2.80;;;1.60;;
13795;SDS011;40911;51.552;9.874;2023-04-24T00:56:42;1.65;;;1.42;;
13795;SDS011;40911;51.552;9.874;2023-04-24T00:59:05;1.60;;;1.50;;
13795;SDS011;40911;51.552;9.874;2023-04-24T01:01:29;1.70;;;1.60;;
13795;SDS011;40911;51.552;9.874;2023-04-24T01:03:52;1.70;;;1.60;;
13795;SDS011;40911;51.552;9.874;2023-04-24T01:06:15;2.05;;;1.80;;
13795;SDS011;40911;51.552;9.874;2023-04-24T01:08:36;1.80;;;1.70;;
13795;SDS011;40911;51.552;9.874;2023-04-24T01:10:59;1.60;;;1.50;;
13795;SDS011;40911;51.552;9.874;2023-04-24T01:13:24;1.75;;;1.60;;
13795;SDS011;40911;51.552;9.874;2023-04-24T01:15:46;1.70;;;1.60;;
13795;SDS011;40911;51.552;9.874;2023-04-24T01:18:09;1.65;;;1.55;;
13795;SDS011;40911;51.552;9.874;2023-04-24T01:20:31;2.38;;;1.52;;
13795;SDS011;40911;51.552;9.874;2023-04-24T01:22:56;2.15;;;1.50;;
13795;SDS011;40911;51.552;9.874;2023-04-24T01:25:18;1.40;;;1.40;;
13795;SDS011;40911;51.552;9.874;2023-04-24T01:30:01;2.05;;;1.50;;
13795;SDS011;40911;51.552;9.874;2023-04-24T01:32:23;2.50;;;1.70;;
13795;SDS011;40911;51.552;9.874;2023-04-24T01:34:46;3.92;;;1.60;;
13795;SDS011;40911;51.552;9.874;2023-04-24T01:37:08;1.80;;;1.70;;
13795;SDS011;40911;51.552;9.874;2023-04-24T01:41:53;1.80;;;1.70;;
13795;SDS011;40911;51.552;9.874;2023-04-24T01:44:15;2.25;;;1.77;;
13795;SDS011;40911;51.552;9.874;2023-04-24T01:46:37;1.88;;;1.70;;
13795;SDS011;40911;51.552;9.874;2023-04-24T01:49:00;1.80;;;1.70;;
13795;SDS011;40911;51.552;9.874;2023-04-24T01:51:21;3.28;;;1.80;;
13795;SDS011;40911;51.552;9.874;2023-04-24T01:53:43;1.60;;;1.50;;
13795;SDS011;40911;51.552;9.874;2023-04-24T01:58:28;2.38;;;2.17;;
13795;SDS011;40911;51.552;9.874;2023-04-24T02:00:50;1.70;;;1.60;;
13795;SDS011;40911;51.552;9.874;2023-04-24T02:03:11;1.73;;;1.63;;
13795;SDS011;40911;51.552;9.874;2023-04-24T02:05:33;1.75;;;1.65;;
13795;SDS011;40911;51.552;9.874;2023-04-24T02:07:55;1.88;;;1.60;;
13795;SDS011;40911;51.552;9.874;2023-04-24T02:10:16;1.88;;;1.73;;
13795;SDS011;40911;51.552;9.874;2023-04-24T02:15:01;1.65;;;1.55;;
13795;SDS011;40911;51.552;9.874;2023-04-24T02:17:23;1.70;;;1.60;;
13795;SDS011;40911;51.552;9.874;2023-04-24T02:22:06;2.03;;;1.73;;
13795;SDS011;40911;51.552;9.874;2023-04-24T02:24:28;2.03;;;1.80;;
13795;SDS011;40911;51.552;9.874;2023-04-24T02:26:50;1.67;;;1.58;;
13795;SDS011;40911;51.552;9.874;2023-04-24T02:29:13;1.98;;;1.88;;
13795;SDS011;40911;51.552;9.874;2023-04-24T02:31:35;2.17;;;1.50;;
13795;SDS011;40911;51.552;9.874;2023-04-24T02:33:56;6.22;;;2.10;;
13795;SDS011;40911;51.552;9.874;2023-04-24T02:36:18;3.65;;;1.75;;
13795;SDS011;40911;51.552;9.874;2023-04-24T02:38:40;2.67;;;1.73;;
13795;SDS011;40911;51.552;9.874;2023-04-24T02:41:03;1.88;;;1.77;;
13795;SDS011;40911;51.552;9.874;2023-04-24T02:43:26;2.25;;;1.65;;
13795;SDS011;40911;51.552;9.874;2023-04-24T02:45:49;1.90;;;1.73;;
13795;SDS011;40911;51.552;9.874;2023-04-24T02:48:11;2.47;;;1.80;;
13795;SDS011;40911;51.552;9.874;2023-04-24T02:50:32;3.47;;;1.80;;
13795;SDS011;40911;51.552;9.874;2023-04-24T02:52:54;2.35;;;1.52;;
13795;SDS011;40911;51.552;9.874;2023-04-24T02:55:16;1.63;;;1.52;;
13795;SDS011;40911;51.552;9.874;2023-04-24T02:59:59;2.15;;;1.80;;
13795;SDS011;40911;51.552;9.874;2023-04-24T03:02:22;1.70;;;1.60;;
13795;SDS011;40911;51.552;9.874;2023-04-24T03:04:44;1.88;;;1.77;;
13795;SDS011;40911;51.552;9.874;2023-04-24T03:07:07;1.90;;;1.80;;
13795;SDS011;40911;51.552;9.874;2023-04-24T03:09:29;1.90;;;1.80;;
13795;SDS011;40911;51.552;9.874;2023-04-24T03:11:51;1.90;;;1.70;;
13795;SDS011;40911;51.552;9.874;2023-04-24T03:16:34;2.25;;;1.75;;
13795;SDS011;40911;51.552;9.874;2023-04-24T03:18:57;2.70;;;1.90;;
13795;SDS011;40911;51.552;9.874;2023-04-24T03:21:18;1.95;;;1.75;;
13795;SDS011;40911;51.552;9.874;2023-04-24T03:26:02;2.33;;;2.10;;
13795;SDS011;40911;51.552;9.874;2023-04-24T03:30:45;4.88;;;2.03;;
13795;SDS011;40911;51.552;9.874;2023-04-24T03:35:31;1.85;;;1.73;;
13795;SDS011;40911;51.552;9.874;2023-04-24T03:37:52;2.33;;;2.13;;
13795;SDS011;40911;51.552;9.874;2023-04-24T03:40:14;3.17;;;2.10;;
13795;SDS011;40911;51.552;9.874;2023-04-24T03:44:57;2.15;;;2.03;;
13795;SDS011;40911;51.552;9.874;2023-04-24T03:47:19;3.97;;;2.10;;
13795;SDS011;40911;51.552;9.874;2023-04-24T03:49:41;2.45;;;2.25;;
13795;SDS011;40911;51.552;9.874;2023-04-24T03:52:04;5.20;;;2.30;;
13795;SDS011;40911;51.552;9.874;2023-04-24T03:54:25;3.30;;;2.20;;
13795;SDS011;40911;51.552;9.874;2023-04-24T03:59:08;4.10;;;2.40;;
13795;SDS011;40911;51.552;9.874;2023-04-24T04:01:30;2.03;;;1.92;;
13795;SDS011;40911;51.552;9.874;2023-04-24T04:03:52;5.60;;;2.25;;
13795;SDS011;40911;51.552;9.874;2023-04-24T04:06:14;3.63;;;2.20;;
13795;SDS011;40911;51.552;9.874;2023-04-24T04:08:37;3.13;;;2.00;;
13795;SDS011;40911;51.552;9.874;2023-04-24T04:10:58;2.40;;;2.20;;
13795;SDS011;40911;51.552;9.874;2023-04-24T04:13:21;3.15;;;2.00;;
13795;SDS011;40911;51.552;9.874;2023-04-24T04:15:44;2.40;;;2.20;;
13795;SDS011;40911;51.552;9.874;2023-04-24T04:20:31;3.50;;;2.10;;
13795;SDS011;40911;51.552;9.874;2023-04-24T04:22:52;3.58;;;2.00;;
13795;SDS011;40911;51.552;9.874;2023-04-24T04:25:16;2.00;;;1.90;;
13795;SDS011;40911;51.552;9.874;2023-04-24T04:27:39;3.65;;;2.22;;
13795;SDS011;40911;51.552;9.874;2023-04-24T04:30:01;2.30;;;2.10;;
13795;SDS011;40911;51.552;9.874;2023-04-24T04:32:24;2.42;;;2.03;;
13795;SDS011;40911;51.552;9.874;2023-04-24T04:34:46;2.30;;;1.75;;
13795;SDS011;40911;51.552;9.874;2023-04-24T04:37:09;2.83;;;2.00;;
13795;SDS011;40911;51.552;9.874;2023-04-24T04:41:53;2.22;;;1.90;;
13795;SDS011;40911;51.552;9.874;2023-04-24T04:44:15;2.20;;;2.00;;
13795;SDS011;40911;51.552;9.874;2023-04-24T04:46:37;2.20;;;2.10;;
13795;SDS011;40911;51.552;9.874;2023-04-24T04:51:20;1.75;;;1.63;;
13795;SDS011;40911;51.552;9.874;2023-04-24T04:53:42;2.30;;;2.08;;
13795;SDS011;40911;51.552;9.874;2023-04-24T04:56:03;3.85;;;2.05;;
13795;SDS011;40911;51.552;9.874;2023-04-24T05:00:48;2.42;;;2.00;;
13795;SDS011;40911;51.552;9.874;2023-04-24T05:03:09;1.85;;;1.73;;
13795;SDS011;40911;51.552;9.874;2023-04-24T05:05:31;1.95;;;1.85;;
13795;SDS011;40911;51.552;9.874;2023-04-24T05:07:53;1.55;;;1.50;;
13795;SDS011;40911;51.552;9.874;2023-04-24T05:10:14;1.90;;;1.55;;
13795;SDS011;40911;51.552;9.874;2023-04-24T05:12:36;1.70;;;1.60;;
13795;SDS011;40911;51.552;9.874;2023-04-24T05:14:59;1.80;;;1.70;;
13795;SDS011;40911;51.552;9.874;2023-04-24T05:17:20;2.88;;;1.63;;
13795;SDS011;40911;51.552;9.874;2023-04-24T05:19:42;2.20;;;2.00;;
13795;SDS011;40911;51.552;9.874;2023-04-24T05:22:03;2.53;;;1.98;;
13795;SDS011;40911;51.552;9.874;2023-04-24T05:24:26;2.05;;;1.70;;
13795;SDS011;40911;51.552;9.874;2023-04-24T05:26:48;2.00;;;1.73;;
13795;SDS011;40911;51.552;9.874;2023-04-24T05:29:09;2.70;;;2.00;;
13795;SDS011;40911;51.552;9.874;2023-04-24T05:31:33;1.90;;;1.80;;
13795;SDS011;40911;51.552;9.874;2023-04-24T05:33:54;2.05;;;1.73;;
13795;SDS011;40911;51.552;9.874;2023-04-24T05:36:16;2.75;;;1.75;;
13795;SDS011;40911;51.552;9.874;2023-04-24T05:38:38;1.88;;;1.77;;
13795;SDS011;40911;51.552;9.874;2023-04-24T05:40:59;2.47;;;1.80;;
13795;SDS011;40911;51.552;9.874;2023-04-24T05:45:42;2.10;;;1.90;;
13795;SDS011;40911;51.552;9.874;2023-04-24T05:48:05;2.00;;;1.90;;
13795;SDS011;40911;51.552;9.874;2023-04-24T05:50:27;2.97;;;1.80;;
13795;SDS011;40911;51.552;9.874;2023-04-24T05:55:10;2.67;;;1.88;;
13795;SDS011;40911;51.552;9.874;2023-04-24T05:57:32;2.05;;;1.85;;
13795;SDS011;40911;51.552;9.874;2023-04-24T05:59:53;2.88;;;1.92;;
13795;SDS011;40911;51.552;9.874;2023-04-24T06:02:15;2.00;;;1.90;;
13795;SDS011;40911;51.552;9.874;2023-04-24T06:04:38;2.10;;;2.00;;
13795;SDS011;40911;51.552;9.874;2023-04-24T06:07:00;1.77;;;1.67;;
13795;SDS011;40911;51.552;9.874;2023-04-24T06:09:22;1.80;;;1.70;;
13795;SDS011;40911;51.552;9.874;2023-04-24T06:11:44;2.08;;;1.98;;
13795;SDS011;40911;51.552;9.874;2023-04-24T06:14:06;1.73;;;1.60;;
13795;SDS011;40911;51.552;9.874;2023-04-24T06:16:27;2.05;;;1.85;;
13795;SDS011;40911;51.552;9.874;2023-04-24T06:18:49;1.80;;;1.70;;
13795;SDS011;40911;51.552;9.874;2023-04-24T06:21:12;2.30;;;1.80;;
13795;SDS011;40911;51.552;9.874;2023-04-24T06:23:34;1.92;;;1.83;;
13795;SDS011;40911;51.552;9.874;2023-04-24T06:25:56;2.38;;;1.85;;
13795;SDS011;40911;51.552;9.874;2023-04-24T06:28:17;2.13;;;2.00;;
13795;SDS011;40911;51.552;9.874;2023-04-24T06:30:39;1.95;;;1.85;;
13795;SDS011;40911;51.552;9.874;2023-04-24T06:35:22;3.00;;;2.25;;
13795;SDS011;40911;51.552;9.874;2023-04-24T06:40:07;2.40;;;2.20;;
13795;SDS011;40911;51.552;9.874;2023-04-24T06:42:29;2.20;;;2.10;;
13795;SDS011;40911;51.552;9.874;2023-04-24T06:44:51;3.28;;;2.35;;
13795;SDS011;40911;51.552;9.874;2023-04-24T06:47:12;2.47;;;2.38;;
13795;SDS011;40911;51.552;9.874;2023-04-24T06:49:34;2.70;;;2.50;;
13795;SDS011;40911;51.552;9.874;2023-04-24T06:51:56;2.80;;;2.60;;
13795;SDS011;40911;51.552;9.874;2023-04-24T06:54:19;2.75;;;2.55;;
13795;SDS011;40911;51.552;9.874;2023-04-24T06:56:40;2.63;;;2.30;;
13795;SDS011;40911;51.552;9.874;2023-04-24T06:59:02;2.60;;;2.40;;
13795;SDS011;40911;51.552;9.874;2023-04-24T07:01:24;2.53;;;2.33;;
13795;SDS011;40911;51.552;9.874;2023-04-24T07:03:45;2.55;;;2.35;;
13795;SDS011;40911;51.552;9.874;2023-04-24T07:06:07;3.40;;;2.78;;
13795;SDS011;40911;51.552;9.874;2023-04-24T07:08:29;3.33;;;3.03;;
13795;SDS011;40911;51.552;9.874;2023-04-24T07:13:13;4.45;;;3.05;;
13795;SDS011;40911;51.552;9.874;2023-04-24T07:15:35;3.83;;;3.05;;
13795;SDS011;40911;51.552;9.874;2023-04-24T07:20:18;6.88;;;3.35;;
13795;SDS011;40911;51.552;9.874;2023-04-24T07:22:39;3.60;;;3.30;;
13795;SDS011;40911;51.552;9.874;2023-04-24T07:27:25;3.72;;;3.40;;
13795;SDS011;40911;51.552;9.874;2023-04-24T07:29:46;3.97;;;3.58;;
13795;SDS011;40911;51.552;9.874;2023-04-24T07:32:08;3.80;;;3.50;;
13795;SDS011;40911;51.552;9.874;2023-04-24T07:34:30;4.00;;;3.70;;
13795;SDS011;40911;51.552;9.874;2023-04-24T07:36:51;3.72;;;3.40;;
13795;SDS011;40911;51.552;9.874;2023-04-24T07:39:13;3.92;;;3.60;;
13795;SDS011;40911;51.552;9.874;2023-04-24T07:41:35;4.00;;;3.70;;
13795;SDS011;40911;51.552;9.874;2023-04-24T07:43:58;5.35;;;3.75;;
13795;SDS011;40911;51.552;9.874;2023-04-24T07:46:19;5.03;;;3.50;;
13795;SDS011;40911;51.552;9.874;2023-04-24T07:48:41;3.85;;;3.55;;
13795;SDS011;40911;51.552;9.874;2023-04-24T07:51:03;4.57;;;3.83;;
13795;SDS011;40911;51.552;9.874;2023-04-24T07:53:24;4.05;;;3.65;;
13795;SDS011;40911;51.552;9.874;2023-04-24T07:55:46;3.88;;;3.33;;
13795;SDS011;40911;51.552;9.874;2023-04-24T07:58:08;7.95;;;4.25;;
13795;SDS011;40911;51.552;9.874;2023-04-24T08:00:31;3.50;;;3.20;;
13795;SDS011;40911;51.552;9.874;2023-04-24T08:02:52;7.28;;;3.85;;
13795;SDS011;40911;51.552;9.874;2023-04-24T08:05:14;4.68;;;3.60;;
13795;SDS011;40911;51.552;9.874;2023-04-24T08:07:36;6.63;;;4.32;;
13795;SDS011;40911;51.552;9.874;2023-04-24T08:09:57;7.05;;;3.55;;
13795;SDS011;40911;51.552;9.874;2023-04-24T08:12:19;4.57;;;3.25;;
13795;SDS011;40911;51.552;9.874;2023-04-24T08:14:41;3.92;;;3.53;;
13795;SDS011;40911;51.552;9.874;2023-04-24T08:17:03;3.78;;;3.38;;
13795;SDS011;40911;51.552;9.874;2023-04-24T08:19:25;3.58;;;3.28;;
13795;SDS011;40911;51.552;9.874;2023-04-24T08:21:47;4.15;;;3.40;;
13795;SDS011;40911;51.552;9.874;2023-04-24T08:24:08;4.20;;;3.80;;
13795;SDS011;40911;51.552;9.874;2023-04-24T08:26:30;3.60;;;3.22;;
13795;SDS011;40911;51.552;9.874;2023-04-24T08:28:51;4.25;;;3.20;;
13795;SDS011;40911;51.552;9.874;2023-04-24T08:31:13;4.05;;;3.10;;
13795;SDS011;40911;51.552;9.874;2023-04-24T08:33:36;3.90;;;3.50;;
13795;SDS011;40911;51.552;9.874;2023-04-24T08:35:57;2.95;;;2.75;;
13795;SDS011;40911;51.552;9.874;2023-04-24T08:38:20;3.22;;;2.92;;
13795;SDS011;40911;51.552;9.874;2023-04-24T08:40:42;3.90;;;3.30;;
13795;SDS011;40911;51.552;9.874;2023-04-24T08:43:05;3.70;;;3.40;;
13795;SDS011;40911;51.552;9.874;2023-04-24T08:45:28;4.20;;;3.75;;
13795;SDS011;40911;51.552;9.874;2023-04-24T08:47:50;3.47;;;3.17;;
13795;SDS011;40911;51.552;9.874;2023-04-24T08:50:17;4.07;;;3.67;;
13795;SDS011;40911;51.552;9.874;2023-04-24T08:52:38;3.35;;;3.05;;
13795;SDS011;40911;51.552;9.874;2023-04-24T08:59:44;3.35;;;3.05;;
13795;SDS011;40911;51.552;9.874;2023-04-24T09:02:06;3.22;;;2.88;;
13795;SDS011;40911;51.552;9.874;2023-04-24T09:04:31;2.95;;;2.75;;
13795;SDS011;40911;51.552;9.874;2023-04-24T09:06:56;3.33;;;3.00;;
13795;SDS011;40911;51.552;9.874;2023-04-24T09:09:19;3.00;;;2.70;;
13795;SDS011;40911;51.552;9.874;2023-04-24T09:11:41;2.95;;;2.65;;
13795;SDS011;40911;51.552;9.874;2023-04-24T09:14:03;4.05;;;2.70;;
13795;SDS011;40911;51.552;9.874;2023-04-24T09:16:25;3.30;;;2.63;;
13795;SDS011;40911;51.552;9.874;2023-04-24T09:18:47;4.47;;;2.90;;
13795;SDS011;40911;51.552;9.874;2023-04-24T09:23:32;3.78;;;3.28;;
13795;SDS011;40911;51.552;9.874;2023-04-24T09:25:55;4.45;;;3.20;;
13795;SDS011;40911;51.552;9.874;2023-04-24T09:28:17;4.90;;;3.40;;
13795;SDS011;40911;51.552;9.874;2023-04-24T09:30:38;4.40;;;3.65;;
13795;SDS011;40911;51.552;9.874;2023-04-24T09:33:09;4.25;;;3.45;;
13795;SDS011;40911;51.552;9.874;2023-04-24T09:35:31;3.78;;;3.47;;
13795;SDS011;40911;51.552;9.874;2023-04-24T09:37:53;4.40;;;3.42;;
13795;SDS011;40911;51.552;9.874;2023-04-24T09:40:21;6.20;;;3.15;;
13795;SDS011;40911;51.552;9.874;2023-04-24T09:42:44;4.10;;;3.80;;
13795;SDS011;40911;51.552;9.874;2023-04-24T09:45:10;5.60;;;4.15;;
13795;SDS011;40911;51.552;9.874;2023-04-24T09:47:35;4.45;;;3.83;;
13795;SDS011;40911;51.552;9.874;2023-04-24T09:49:57;4.60;;;3.75;;
13795;SDS011;40911;51.552;9.874;2023-04-24T09:52:19;4.28;;;3.35;;
13795;SDS011;40911;51.552;9.874;2023-04-24T09:54:41;3.78;;;3.47;;
13795;SDS011;40911;51.552;9.874;2023-04-24T09:57:04;4.07;;;3.67;;
13795;SDS011;40911;51.552;9.874;2023-04-24T09:59:28;5.88;;;3.67;;
13795;SDS011;40911;51.552;9.874;2023-04-24T10:01:51;4.10;;;3.67;;
13795;SDS011;40911;51.552;9.874;2023-04-24T10:04:16;6.57;;;3.90;;
13795;SDS011;40911;51.552;9.874;2023-04-24T10:06:39;4.30;;;3.90;;
13795;SDS011;40911;51.552;9.874;2023-04-24T10:09:04;3.88;;;3.58;;
13795;SDS011;40911;51.552;9.874;2023-04-24T10:11:26;4.18;;;3.78;;
13795;SDS011;40911;51.552;9.874;2023-04-24T10:13:49;4.80;;;3.05;;
13795;SDS011;40911;51.552;9.874;2023-04-24T10:16:12;5.18;;;2.90;;
13795;SDS011;40911;51.552;9.874;2023-04-24T10:18:35;4.30;;;3.25;;
13795;SDS011;40911;51.552;9.874;2023-04-24T10:20:56;6.95;;;4.35;;
13795;SDS011;40911;51.552;9.874;2023-04-24T10:23:20;3.55;;;3.25;;
13795;SDS011;40911;51.552;9.874;2023-04-24T10:25:43;3.45;;;3.13;;
13795;SDS011;40911;51.552;9.874;2023-04-24T10:30:29;4.90;;;3.03;;
13795;SDS011;40911;51.552;9.874;2023-04-24T10:32:55;6.15;;;3.50;;
13795;SDS011;40911;51.552;9.874;2023-04-24T10:35:17;3.60;;;3.25;;
13795;SDS011;40911;51.552;9.874;2023-04-24T10:37:43;4.47;;;3.28;;
13795;SDS011;40911;51.552;9.874;2023-04-24T10:40:07;6.35;;;3.85;;
13795;SDS011;40911;51.552;9.874;2023-04-24T10:42:29;3.40;;;3.10;;
13795;SDS011;40911;51.552;9.874;2023-04-24T10:47:15;6.50;;;3.60;;
13795;SDS011;40911;51.552;9.874;2023-04-24T10:49:36;3.22;;;2.92;;
13795;SDS011;40911;51.552;9.874;2023-04-24T10:54:22;2.88;;;2.65;;
13795;SDS011;40911;51.552;9.874;2023-04-24T10:56:45;3.17;;;2.90;;
13795;SDS011;40911;51.552;9.874;2023-04-24T10:59:07;2.80;;;2.60;;
13795;SDS011;40911;51.552;9.874;2023-04-24T11:01:30;1.80;;;1.70;;
13795;SDS011;40911;51.552;9.874;2023-04-24T11:03:55;5.53;;;2.13;;
13795;SDS011;40911;51.552;9.874;2023-04-24T11:06:18;3.47;;;2.28;;
13795;SDS011;40911;51.552;9.874;2023-04-24T11:08:51;2.92;;;2.38;;
13795;SDS011;40911;51.552;9.874;2023-04-24T11:11:13;3.15;;;2.63;;
13795;SDS011;40911;51.552;9.874;2023-04-24T11:16:25;2.05;;;1.95;;
13795;SDS011;40911;51.552;9.874;2023-04-24T11:18:50;2.72;;;2.00;;
13795;SDS011;40911;51.552;9.874;2023-04-24T11:21:17;2.88;;;2.30;;
13795;SDS011;40911;51.552;9.874;2023-04-24T11:23:38;2.70;;;2.50;;
13795;SDS011;40911;51.552;9.874;2023-04-24T11:26:09;2.45;;;2.20;;
13795;SDS011;40911;51.552;9.874;2023-04-24T11:28:31;2.90;;;2.70;;
13795;SDS011;40911;51.552;9.874;2023-04-24T11:30:53;2.58;;;2.28;;
13795;SDS011;40911;51.552;9.874;2023-04-24T11:33:15;3.97;;;2.50;;
13795;SDS011;40911;51.552;9.874;2023-04-24T11:35:41;4.60;;;3.30;;
13795;SDS011;40911;51.552;9.874;2023-04-24T11:38:05;5.70;;;4.57;;
13795;SDS011;40911;51.552;9.874;2023-04-24T11:40:28;3.30;;;2.70;;
13795;SDS011;40911;51.552;9.874;2023-04-24T11:42:50;2.60;;;2.40;;
13795;SDS011;40911;51.552;9.874;2023-04-24T11:45:13;2.20;;;2.05;;
13795;SDS011;40911;51.552;9.874;2023-04-24T11:47:36;2.65;;;2.45;;
13795;SDS011;40911;51.552;9.874;2023-04-24T11:49:59;2.72;;;2.25;;
13795;SDS011;40911;51.552;9.874;2023-04-24T11:52:21;2.70;;;2.50;;
13795;SDS011;40911;51.552;9.874;2023-04-24T11:54:48;2.30;;;2.10;;
13795;SDS011;40911;51.552;9.874;2023-04-24T11:57:11;2.88;;;2.28;;
13795;SDS011;40911;51.552;9.874;2023-04-24T11:59:35;2.30;;;2.10;;
13795;SDS011;40911;51.552;9.874;2023-04-24T12:01:58;2.08;;;1.73;;
13795;SDS011;40911;51.552;9.874;2023-04-24T12:04:19;2.20;;;2.00;;
13795;SDS011;40911;51.552;9.874;2023-04-24T12:09:20;1.70;;;1.58;;
13795;SDS011;40911;51.552;9.874;2023-04-24T12:11:53;1.98;;;1.60;;
13795;SDS011;40911;51.552;9.874;2023-04-24T12:14:15;1.10;;;1.10;;
13795;SDS011;40911;51.552;9.874;2023-04-24T12:16:37;1.33;;;1.30;;
13795;SDS011;40911;51.552;9.874;2023-04-24T12:18:59;0.90;;;0.90;;
13795;SDS011;40911;51.552;9.874;2023-04-24T12:21:21;1.00;;;1.00;;
13795;SDS011;40911;51.552;9.874;2023-04-24T12:23:46;0.90;;;0.90;;
13795;SDS011;40911;51.552;9.874;2023-04-24T12:26:08;1.30;;;1.00;;
13795;SDS011;40911;51.552;9.874;2023-04-24T12:28:35;1.00;;;1.00;;
13795;SDS011;40911;51.552;9.874;2023-04-24T12:30:58;1.13;;;0.98;;
13795;SDS011;40911;51.552;9.874;2023-04-24T12:33:21;0.95;;;0.95;;
13795;SDS011;40911;51.552;9.874;2023-04-24T12:35:43;1.00;;;1.00;;
13795;SDS011;40911;51.552;9.874;2023-04-24T12:40:28;0.90;;;0.90;;
13795;SDS011;40911;51.552;9.874;2023-04-24T12:42:51;0.98;;;0.98;;
13795;SDS011;40911;51.552;9.874;2023-04-24T12:45:14;1.10;;;1.10;;
13795;SDS011;40911;51.552;9.874;2023-04-24T12:47:37;1.10;;;1.10;;
13795;SDS011;40911;51.552;9.874;2023-04-24T12:49:59;1.10;;;1.10;;
13795;SDS011;40911;51.552;9.874;2023-04-24T12:52:22;1.85;;;1.02;;
13795;SDS011;40911;51.552;9.874;2023-04-24T12:54:43;0.90;;;0.90;;
13795;SDS011;40911;51.552;9.874;2023-04-24T12:59:26;1.52;;;1.42;;
13795;SDS011;40911;51.552;9.874;2023-04-24T13:01:49;1.77;;;1.27;;
13795;SDS011;40911;51.552;9.874;2023-04-24T13:04:11;1.50;;;1.27;;
13795;SDS011;40911;51.552;9.874;2023-04-24T13:06:33;1.30;;;1.20;;
13795;SDS011;40911;51.552;9.874;2023-04-24T13:08:54;1.25;;;1.25;;
13795;SDS011;40911;51.552;9.874;2023-04-24T13:11:17;1.45;;;1.40;;
13795;SDS011;40911;51.552;9.874;2023-04-24T13:13:39;1.40;;;1.30;;
13795;SDS011;40911;51.552;9.874;2023-04-24T13:16:01;1.50;;;1.40;;
13795;SDS011;40911;51.552;9.874;2023-04-24T13:18:24;1.45;;;1.40;;
13795;SDS011;40911;51.552;9.874;2023-04-24T13:20:45;1.30;;;1.20;;
13795;SDS011;40911;51.552;9.874;2023-04-24T13:25:30;1.20;;;1.20;;
13795;SDS011;40911;51.552;9.874;2023-04-24T13:27:55;1.40;;;1.30;;
13795;SDS011;40911;51.552;9.874;2023-04-24T13:30:17;1.25;;;1.25;;
13795;SDS011;40911;51.552;9.874;2023-04-24T13:35:02;1.50;;;1.40;;
13795;SDS011;40911;51.552;9.874;2023-04-24T13:37:24;1.30;;;1.30;;
13795;SDS011;40911;51.552;9.874;2023-04-24T13:42:07;1.40;;;1.40;;
13795;SDS011;40911;51.552;9.874;2023-04-24T13:44:28;1.38;;;1.38;;
13795;SDS011;40911;51.552;9.874;2023-04-24T13:46:50;1.48;;;1.48;;
13795;SDS011;40911;51.552;9.874;2023-04-24T13:49:16;1.50;;;1.40;;
13795;SDS011;40911;51.552;9.874;2023-04-24T13:51:40;1.42;;;1.42;;
13795;SDS011;40911;51.552;9.874;2023-04-24T13:54:03;1.40;;;1.40;;
13795;SDS011;40911;51.552;9.874;2023-04-24T13:56:24;1.40;;;1.40;;
13795;SDS011;40911;51.552;9.874;2023-04-24T13:58:47;1.42;;;1.38;;
13795;SDS011;40911;51.552;9.874;2023-04-24T14:01:09;1.40;;;1.40;;
13795;SDS011;40911;51.552;9.874;2023-04-24T14:03:30;1.38;;;1.38;;
13795;SDS011;40911;51.552;9.874;2023-04-24T14:05:52;1.95;;;1.58;;
13795;SDS011;40911;51.552;9.874;2023-04-24T14:08:15;1.60;;;1.50;;
13795;SDS011;40911;51.552;9.874;2023-04-24T14:10:37;1.60;;;1.50;;
13795;SDS011;40911;51.552;9.874;2023-04-24T14:12:58;1.70;;;1.50;;
13795;SDS011;40911;51.552;9.874;2023-04-24T14:15:20;1.67;;;1.58;;
13795;SDS011;40911;51.552;9.874;2023-04-24T14:17:41;1.45;;;1.40;;
13795;SDS011;40911;51.552;9.874;2023-04-24T14:20:04;1.67;;;1.58;;
13795;SDS011;40911;51.552;9.874;2023-04-24T14:22:26;1.50;;;1.40;;
13795;SDS011;40911;51.552;9.874;2023-04-24T14:24:49;1.48;;;1.48;;
13795;SDS011;40911;51.552;9.874;2023-04-24T14:27:11;1.40;;;1.40;;
13795;SDS011;40911;51.552;9.874;2023-04-24T14:29:33;1.73;;;1.67;;
13795;SDS011;40911;51.552;9.874;2023-04-24T14:31:54;1.77;;;1.67;;
13795;SDS011;40911;51.552;9.874;2023-04-24T14:36:37;1.75;;;1.65;;
13795;SDS011;40911;51.552;9.874;2023-04-24T14:38:59;1.88;;;1.77;;
13795;SDS011;40911;51.552;9.874;2023-04-24T14:41:24;2.22;;;2.03;;
13795;SDS011;40911;51.552;9.874;2023-04-24T14:43:46;1.88;;;1.77;;
13795;SDS011;40911;51.552;9.874;2023-04-24T14:46:08;2.20;;;2.03;;
13795;SDS011;40911;51.552;9.874;2023-04-24T14:48:29;2.10;;;2.00;;
13795;SDS011;40911;51.552;9.874;2023-04-24T14:50:51;2.40;;;2.20;;
13795;SDS011;40911;51.552;9.874;2023-04-24T14:53:12;2.28;;;2.17;;
13795;SDS011;40911;51.552;9.874;2023-04-24T14:55:36;2.47;;;2.30;;
13795;SDS011;40911;51.552;9.874;2023-04-24T14:57:59;2.75;;;2.55;;
13795;SDS011;40911;51.552;9.874;2023-04-24T15:00:21;2.83;;;2.63;;
13795;SDS011;40911;51.552;9.874;2023-04-24T15:02:43;3.85;;;3.20;;
13795;SDS011;40911;51.552;9.874;2023-04-24T15:05:05;4.05;;;3.67;;
13795;SDS011;40911;51.552;9.874;2023-04-24T15:07:28;4.85;;;3.60;;
13795;SDS011;40911;51.552;9.874;2023-04-24T15:09:51;4.53;;;4.10;;
13795;SDS011;40911;51.552;9.874;2023-04-24T15:12:12;7.55;;;4.72;;
13795;SDS011;40911;51.552;9.874;2023-04-24T15:16:57;5.07;;;4.00;;
13795;SDS011;40911;51.552;9.874;2023-04-24T15:19:18;6.68;;;4.80;;
13795;SDS011;40911;51.552;9.874;2023-04-24T15:21:40;6.57;;;4.80;;
13795;SDS011;40911;51.552;9.874;2023-04-24T15:24:03;5.47;;;4.97;;
13795;SDS011;40911;51.552;9.874;2023-04-24T15:26:25;6.18;;;4.53;;
13795;SDS011;40911;51.552;9.874;2023-04-24T15:28:47;7.70;;;4.60;;
13795;SDS011;40911;51.552;9.874;2023-04-24T15:31:10;8.15;;;5.35;;
13795;SDS011;40911;51.552;9.874;2023-04-24T15:33:31;6.82;;;4.72;;
13795;SDS011;40911;51.552;9.874;2023-04-24T15:35:53;7.20;;;4.82;;
13795;SDS011;40911;51.552;9.874;2023-04-24T15:38:15;6.85;;;5.07;;
13795;SDS011;40911;51.552;9.874;2023-04-24T15:40:36;5.80;;;4.82;;
13795;SDS011;40911;51.552;9.874;2023-04-24T15:42:58;8.32;;;6.57;;
13795;SDS011;40911;51.552;9.874;2023-04-24T15:45:20;5.72;;;5.10;;
13795;SDS011;40911;51.552;9.874;2023-04-24T15:47:43;6.40;;;5.28;;
13795;SDS011;40911;51.552;9.874;2023-04-24T15:50:06;7.82;;;5.13;;
13795;SDS011;40911;51.552;9.874;2023-04-24T15:52:29;8.73;;;5.15;;
13795;SDS011;40911;51.552;9.874;2023-04-24T15:54:51;8.55;;;5.78;;
13795;SDS011;40911;51.552;9.874;2023-04-24T15:59:34;5.80;;;4.97;;
13795;SDS011;40911;51.552;9.874;2023-04-24T16:04:19;10.38;;;5.57;;